Time;durP1;ratioP1;P1;durP2;ratioP2;P2;SDS_P1;SDS_P2;PMS_P1;PMS_P2;Temp;Humidity;BMP_temperature;BMP_pressure;BME280_temperature;BME280_humidity;BME280_pressure;Samples;Min_cycle;Max_cycle;Signal;HPM_P1;HPM_P2
2022/06/28 00:00:14;;;;;;;;;;;;;;;-144.99;100.00;52323.75;4953623;28;19975;-63
2022/06/28 00:02:41;;;;;;;;;;;;;;;-144.99;100.00;52342.09;4959579;28;19922;-63
2022/06/28 00:05:08;;;;;;;;;;;;;;;-144.99;100.00;52305.41;4952032;28;19960;-64
2022/06/28 00:07:35;;;;;;;;;;;;;;;-144.99;100.00;52329.88;4950914;28;19922;-65
2022/06/28 00:10:01;;;;;;;;;;;;;;;-144.99;100.00;52278.91;4949896;28;20009;-65
2022/06/28 00:12:28;;;;;;;;;;;;;;;-144.99;100.00;52360.44;4957909;28;19922;-64
2022/06/28 00:17:40;;;;;;;;;;;;;;;-144.99;100.00;52293.19;4953823;28;20236;-64
2022/06/28 00:20:07;;;;;;;;;;;;;;;-144.99;100.00;52333.94;4955383;28;20320;-64
2022/06/28 00:22:33;;;;;;;;;;;;;;;-144.99;100.00;52329.88;4959338;28;20110;-64
2022/06/28 00:25:00;;;;;;;;;;;;;;;-144.99;100.00;52305.41;4953725;28;19930;-63
2022/06/28 00:27:26;;;;;;;;;;;;;;;-144.99;100.00;52313.56;4960096;28;20430;-64
2022/06/28 00:29:53;;;;;;;;;;;;;;;-144.99;100.00;52350.25;4951707;28;20236;-64
2022/06/28 00:32:19;;;;;;;;;;;;;;;-144.99;100.00;52329.88;4960160;28;20042;-64
2022/06/28 00:34:47;;;;;;;;;;;;;;;-144.99;100.00;52321.72;4956779;28;20238;-64
2022/06/28 00:37:14;;;;;;;;;;;;;;;-144.99;100.00;52338.03;4966147;28;19930;-64
2022/06/28 00:39:40;;;;;;;;;;;;;;;-144.99;100.00;52329.88;4956969;28;20385;-69
2022/06/28 00:42:08;;;;;;;;;;;;;;;-144.99;100.00;52325.81;4958131;28;19923;-65
2022/06/28 00:44:34;;;;;;;;;;;;;;;-144.99;100.00;52338.03;4949143;28;20034;-68
2022/06/28 00:47:01;;;;;;;;;;;;;;;-144.99;100.00;52340.06;4956647;28;19961;-66
2022/06/28 00:49:28;;;;;;;;;;;;;;;-144.99;100.00;52289.13;4971296;28;19973;-69
2022/06/28 00:51:57;;;;;;;;;;;;;;;-144.99;100.00;52325.81;4968139;28;20009;-70
2022/06/28 00:54:23;;;;;;;;;;;;;;;-144.99;100.00;52342.09;4977221;28;20001;-70
2022/06/28 00:56:50;;;;;;;;;;;;;;;-144.99;100.00;52327.84;4964540;28;19966;-68
2022/06/28 00:59:16;;;;;;;;;;;;;;;-144.99;100.00;52338.03;4960119;28;19953;-69
2022/06/28 01:01:43;;;;;;;;;;;;;;;-144.99;100.00;52338.03;5003052;28;20028;-69
2022/06/28 01:04:09;;;;;;;;;;;;;;;-144.99;100.00;52319.69;4966826;28;19926;-68
2022/06/28 01:06:37;;;;;;;;;;;;;;;-144.99;100.00;52340.06;4968435;28;19952;-67
2022/06/28 01:09:05;;;;;;;;;;;;;;;-144.99;100.00;52346.19;4972901;28;19922;-67
2022/06/28 01:11:32;;;;;;;;;;;;;;;-144.99;100.00;52305.41;4968932;28;19972;-69
2022/06/28 01:13:59;;;;;;;;;;;;;;;-144.99;100.00;52333.94;4965192;28;19922;-64
2022/06/28 01:16:26;;;;;;;;;;;;;;;-144.99;100.00;52333.94;4962369;28;20032;-64
2022/06/28 01:18:52;;;;;;;;;;;;;;;-144.99;100.00;52338.03;4974699;28;19992;-64
2022/06/28 01:21:19;;;;;;;;;;;;;;;-144.99;100.00;52366.56;4970557;28;19972;-66
2022/06/28 01:23:48;;;;;;;;;;;;;;;-144.99;100.00;52342.09;4966979;28;20400;-65
2022/06/28 01:26:15;;;;;;;;;;;;;;;-144.99;100.00;52358.41;4951400;28;19922;-64
2022/06/28 01:28:42;;;;;;;;;;;;;;;-144.99;100.00;52358.41;4954531;28;20451;-67
2022/06/28 01:31:08;;;;;;;;;;;;;;;-144.99;100.00;52333.94;4948956;28;19922;-67
2022/06/28 01:33:37;;;;;;;;;;;;;;;-144.99;100.00;52309.50;4962623;28;19987;-67
2022/06/28 01:36:03;;;;;;;;;;;;;;;-144.99;100.00;52348.22;4960567;28;19922;-67
2022/06/28 01:38:30;;;;;;;;;;;;;;;-144.99;100.00;52342.09;4959461;28;19926;-67
2022/06/28 01:40:58;;;;;;;;;;;;;;;-144.99;100.00;52338.03;4957426;28;20027;-67
2022/06/28 01:43:25;;;;;;;;;;;;;;;-144.99;100.00;52336.00;4955009;28;20022;-68
2022/06/28 01:45:52;;;;;;;;;;;;;;;-144.99;100.00;52407.31;4957663;28;20020;-64
2022/06/28 01:48:19;;;;;;;;;;;;;;;-144.99;100.00;52338.03;4963480;28;19922;-64
2022/06/28 01:50:45;;;;;;;;;;;;;;;-144.99;100.00;52354.34;4955103;28;20045;-64
2022/06/28 01:53:12;;;;;;;;;;;;;;;-144.99;100.00;52358.41;4961630;28;20069;-64
2022/06/28 01:55:39;;;;;;;;;;;;;;;-144.99;100.00;52354.34;4961747;28;19999;-63
2022/06/28 01:58:07;;;;;;;;;;;;;;;-144.99;100.00;52321.72;4966414;28;20067;-64
2022/06/28 02:00:34;;;;;;;;;;;;;;;-144.99;100.00;52313.56;4959756;28;20152;-64
2022/06/28 02:03:00;;;;;;;;;;;;;;;-144.99;100.00;52358.41;4960023;28;19980;-64
2022/06/28 02:05:27;;;;;;;;;;;;;;;-144.99;100.00;52327.84;4956178;28;20011;-63
2022/06/28 02:07:55;;;;;;;;;;;;;;;-144.99;100.00;52329.88;4959684;28;20043;-62
2022/06/28 02:10:21;;;;;;;;;;;;;;;-144.99;100.00;52374.72;4950797;28;19974;-62
2022/06/28 02:12:48;;;;;;;;;;;;;;;-144.99;100.00;52362.50;4959561;28;20079;-61
2022/06/28 02:15:16;;;;;;;;;;;;;;;-144.99;100.00;52317.66;4962746;28;20035;-62
2022/06/28 02:17:44;;;;;;;;;;;;;;;-144.99;100.00;52358.41;4969884;28;20407;-61
2022/06/28 02:20:11;;;;;;;;;;;;;;;-144.99;100.00;52342.09;4959931;28;19972;-62
2022/06/28 02:22:37;;;;;;;;;;;;;;;-144.99;100.00;52338.03;4961866;28;19923;-62
2022/06/28 02:25:04;;;;;;;;;;;;;;;-144.99;100.00;52350.25;4954607;28;19923;-63
2022/06/28 02:27:32;;;;;;;;;;;;;;;-144.99;100.00;52325.81;4964981;28;20466;-63
2022/06/28 02:29:59;;;;;;;;;;;;;;;-144.99;100.00;52358.41;4951903;28;19996;-62
2022/06/28 02:32:26;;;;;;;;;;;;;;;-144.99;100.00;52336.00;4963156;28;19930;-63
2022/06/28 02:40:24;;;;;;;;;;;;;;;-144.99;100.00;52313.56;4961827;28;19979;-62
2022/06/28 02:42:51;;;;;;;;;;;;;;;-144.99;100.00;52333.94;4955155;28;19965;-62
2022/06/28 02:45:17;;;;;;;;;;;;;;;-144.99;100.00;52336.00;4961284;28;19923;-61
2022/06/28 02:47:45;;;;;;;;;;;;;;;-144.99;100.00;52329.88;4959719;28;19926;-63
2022/06/28 02:50:12;;;;;;;;;;;;;;;-144.99;100.00;52297.25;4966005;28;19934;-64
2022/06/28 02:52:39;;;;;;;;;;;;;;;-144.99;100.00;52305.41;4957741;28;19922;-62
2022/06/28 02:55:07;;;;;;;;;;;;;;;-144.99;100.00;52321.72;4960097;28;19929;-62
2022/06/28 02:57:34;;;;;;;;;;;;;;;-144.99;100.00;52342.09;4963531;28;20012;-62
2022/06/28 03:00:00;;;;;;;;;;;;;;;-144.99;100.00;52346.19;4959913;28;20077;-63
2022/06/28 03:02:27;;;;;;;;;;;;;;;-144.99;100.00;52333.94;4953551;28;19922;-63
2022/06/28 03:04:55;;;;;;;;;;;;;;;-144.99;100.00;52344.16;4954109;28;20060;-64
2022/06/28 03:07:21;;;;;;;;;;;;;;;-144.99;100.00;52338.03;4963456;28;20005;-66
2022/06/28 03:09:47;;;;;;;;;;;;;;;-144.99;100.00;52360.44;4964724;28;19922;-64
2022/06/28 03:12:14;;;;;;;;;;;;;;;-144.99;100.00;52338.03;4957864;28;20356;-64
2022/06/28 03:14:40;;;;;;;;;;;;;;;-144.99;100.00;52386.94;4961012;28;19957;-65
2022/06/28 03:17:07;;;;;;;;;;;;;;;-144.99;100.00;52325.81;4966709;28;20401;-67
2022/06/28 03:19:33;;;;;;;;;;;;;;;-144.99;100.00;52362.50;4961479;28;19924;-65
2022/06/28 03:22:01;;;;;;;;;;;;;;;-144.99;100.00;52325.81;4960944;28;19922;-65
2022/06/28 03:24:28;;;;;;;;;;;;;;;-144.99;100.00;52350.25;4949159;28;19927;-62
2022/06/28 03:26:54;;;;;;;;;;;;;;;-144.99;100.00;52333.94;4960152;28;19925;-61
2022/06/28 03:29:21;;;;;;;;;;;;;;;-144.99;100.00;52374.72;4961286;28;20353;-60
2022/06/28 03:31:48;;;;;;;;;;;;;;;-144.99;100.00;52333.94;4957686;28;20223;-62
2022/06/28 03:34:15;;;;;;;;;;;;;;;-144.99;100.00;52362.50;4958729;28;20102;-62
2022/06/28 03:36:42;;;;;;;;;;;;;;;-144.99;100.00;52378.78;4964997;28;19961;-62
2022/06/28 03:39:09;;;;;;;;;;;;;;;-144.99;100.00;52325.81;4955989;28;19923;-62
2022/06/28 03:41:36;;;;;;;;;;;;;;;-144.99;100.00;52366.56;4963736;28;19922;-61
2022/06/28 03:44:03;;;;;;;;;;;;;;;-144.99;100.00;52366.56;4961037;28;19927;-61
2022/06/28 03:46:30;;;;;;;;;;;;;;;-144.99;100.00;52356.38;4961612;28;20397;-61
2022/06/28 03:48:56;;;;;;;;;;;;;;;-144.99;100.00;52350.25;4952622;28;20005;-61
2022/06/28 03:51:22;;;;;;;;;;;;;;;-144.99;100.00;52362.50;4958482;28;19934;-60
2022/06/28 03:53:49;;;;;;;;;;;;;;;-144.99;100.00;52346.19;4959529;28;19957;-61
2022/06/28 03:56:17;;;;;;;;;;;;;;;-144.99;100.00;52317.66;4954196;28;19977;-63
2022/06/28 03:58:44;;;;;;;;;;;;;;;-144.99;100.00;52325.81;4957453;28;19977;-63
2022/06/28 04:01:10;;;;;;;;;;;;;;;-144.99;100.00;52372.69;4960129;28;20504;-63
2022/06/28 04:03:37;;;;;;;;;;;;;;;-144.99;100.00;52368.59;4958256;28;20367;-63
2022/06/28 04:06:04;;;;;;;;;;;;;;;-144.99;100.00;52329.88;4956574;28;20028;-63
2022/06/28 04:08:30;;;;;;;;;;;;;;;-144.99;100.00;52325.81;4950858;28;19977;-63
2022/06/28 04:13:39;;;;;;;;;;;;;;;-144.99;100.00;52360.44;4954374;28;19922;-63
2022/06/28 04:16:05;;;;;;;;;;;;;;;-144.99;100.00;52313.56;4958376;28;19923;-63
2022/06/28 04:18:32;;;;;;;;;;;;;;;-144.99;100.00;52329.88;4947098;28;19980;-63
2022/06/28 04:20:59;;;;;;;;;;;;;;;-144.99;100.00;52331.91;4954092;28;20347;-64
2022/06/28 04:23:25;;;;;;;;;;;;;;;-144.99;100.00;52338.03;4963215;28;19922;-66
2022/06/28 04:25:52;;;;;;;;;;;;;;;-144.99;100.00;52325.81;4953897;28;20260;-65
2022/06/28 04:28:18;;;;;;;;;;;;;;;-144.99;100.00;52319.69;4963165;28;20057;-64
2022/06/28 04:30:46;;;;;;;;;;;;;;;-144.99;100.00;52325.81;4950829;28;19980;-66
2022/06/28 04:33:12;;;;;;;;;;;;;;;-144.99;100.00;52346.19;4961384;28;20354;-64
2022/06/28 04:35:39;;;;;;;;;;;;;;;-144.99;100.00;52325.81;4965542;28;20009;-63
2022/06/28 04:38:06;;;;;;;;;;;;;;;-144.99;100.00;52333.94;4959018;28;19941;-65
2022/06/28 04:40:32;;;;;;;;;;;;;;;-144.99;100.00;52305.41;4962446;28;19982;-64
2022/06/28 04:42:59;;;;;;;;;;;;;;;-144.99;100.00;52327.84;4952475;28;19972;-64
2022/06/28 04:45:25;;;;;;;;;;;;;;;-144.99;100.00;52354.34;4961526;28;19926;-64
2022/06/28 04:47:53;;;;;;;;;;;;;;;-144.99;100.00;52321.72;4953328;28;19926;-64
2022/06/28 04:50:20;;;;;;;;;;;;;;;-144.99;100.00;52301.34;4961936;28;20025;-64
2022/06/28 04:52:47;;;;;;;;;;;;;;;-144.99;100.00;52305.41;4957771;28;19950;-64
2022/06/28 04:55:13;;;;;;;;;;;;;;;-144.99;100.00;52313.56;4959858;28;19922;-65
2022/06/28 04:57:39;;;;;;;;;;;;;;;-144.99;100.00;52329.88;4952317;28;19988;-65
2022/06/28 05:00:07;;;;;;;;;;;;;;;-144.99;100.00;52329.88;4958093;28;20367;-66
2022/06/28 05:02:36;;;;;;;;;;;;;;;-144.99;100.00;52299.31;4994368;28;19922;-65
2022/06/28 05:05:04;;;;;;;;;;;;;;;-144.99;100.00;52301.34;4952338;28;20428;-67
2022/06/28 05:07:32;;;;;;;;;;;;;;;-144.99;100.00;52293.19;4960879;28;20376;-68
2022/06/28 05:09:58;;;;;;;;;;;;;;;-144.99;100.00;52315.59;4964552;22;20294;-67
2022/06/28 05:12:25;;;;;;;;;;;;;;;-144.99;100.00;52289.13;4978878;28;19975;-67
2022/06/28 05:14:51;;;;;;;;;;;;;;;-144.99;100.00;52272.81;5028726;28;20070;-67
2022/06/28 05:17:18;;;;;;;;;;;;;;;-144.99;100.00;52301.34;5000327;28;19929;-66
2022/06/28 05:19:44;;;;;;;;;;;;;;;-144.99;100.00;52313.56;4301560;28;10000723;-66
2022/06/28 05:22:13;;;;;;;;;;;;;;;-144.99;100.00;52309.50;4985451;28;19930;-67
2022/06/28 05:24:40;;;;;;;;;;;;;;;-144.99;100.00;52323.75;4982271;28;19930;-67
2022/06/28 05:27:06;;;;;;;;;;;;;;;-144.99;100.00;52299.31;5008588;28;20000;-66
2022/06/28 05:29:33;;;;;;;;;;;;;;;-144.99;100.00;52285.03;4989924;28;19957;-67
2022/06/28 05:31:59;;;;;;;;;;;;;;;-144.99;100.00;52305.41;4992035;28;20019;-73
2022/06/28 05:34:26;;;;;;;;;;;;;;;-144.99;100.00;52305.41;4957825;28;19983;-74
2022/06/28 05:36:52;;;;;;;;;;;;;;;-144.99;100.00;52321.72;5010286;28;19937;-74
2022/06/28 05:39:21;;;;;;;;;;;;;;;-144.99;100.00;52309.50;4990739;28;19988;-74
2022/06/28 05:41:47;;;;;;;;;;;;;;;-144.99;100.00;52323.75;4990529;28;20347;-74
2022/06/28 05:44:14;;;;;;;;;;;;;;;-144.99;100.00;52280.97;5012497;28;19926;-74
2022/06/28 05:46:41;;;;;;;;;;;;;;;-144.99;100.00;52309.50;5023900;28;19924;-74
2022/06/28 05:49:08;;;;;;;;;;;;;;;-144.99;100.00;52303.38;5008844;28;20494;-74
2022/06/28 05:51:35;;;;;;;;;;;;;;;-144.99;100.00;52291.16;5015666;28;20027;-76
2022/06/28 05:54:02;;;;;;;;;;;;;;;-144.99;100.00;52276.88;5018144;28;20338;-74
2022/06/28 05:56:32;;;;;;;;;;;;;;;-144.99;100.00;52301.34;4989800;28;19924;-74
2022/06/28 05:58:58;;;;;;;;;;;;;;;-144.99;100.00;52311.53;5010661;28;19980;-74
2022/06/28 06:01:25;;;;;;;;;;;;;;;-144.99;100.00;52313.56;5027208;28;19930;-74
2022/06/28 06:03:52;;;;;;;;;;;;;;;-144.99;100.00;52325.81;5000099;28;19933;-74
2022/06/28 06:06:18;;;;;;;;;;;;;;;-144.99;100.00;52348.22;5016564;28;19967;-75
2022/06/28 06:08:45;;;;;;;;;;;;;;;-144.99;100.00;52333.94;4993634;28;19926;-74
2022/06/28 06:11:11;;;;;;;;;;;;;;;-144.99;100.00;52331.91;4981554;28;20029;-74
2022/06/28 06:13:39;;;;;;;;;;;;;;;-144.99;100.00;52329.88;4980136;28;19925;-73
2022/06/28 06:16:06;;;;;;;;;;;;;;;-144.99;100.00;52329.88;5012752;28;19922;-74
2022/06/28 06:18:32;;;;;;;;;;;;;;;-144.99;100.00;52333.94;5020371;28;19924;-74
2022/06/28 06:20:59;;;;;;;;;;;;;;;-144.99;100.00;52309.50;5001442;28;20239;-73
2022/06/28 06:23:26;;;;;;;;;;;;;;;-144.99;100.00;52285.03;5012685;28;19990;-73
2022/06/28 06:25:52;;;;;;;;;;;;;;;-144.99;100.00;52276.88;4985393;28;19933;-74
2022/06/28 06:28:21;;;;;;;;;;;;;;;-144.99;100.00;52338.03;5010638;28;20358;-74
2022/06/28 06:30:49;;;;;;;;;;;;;;;-144.99;100.00;52323.75;4998426;28;19923;-74
2022/06/28 06:33:16;;;;;;;;;;;;;;;-144.99;100.00;52285.03;5018412;28;20021;-74
2022/06/28 06:35:42;;;;;;;;;;;;;;;-144.99;100.00;52329.88;5033606;28;19925;-74
2022/06/28 06:38:09;;;;;;;;;;;;;;;-144.99;100.00;52315.59;4997396;28;19923;-74
2022/06/28 06:40:36;;;;;;;;;;;;;;;-144.99;100.00;52278.91;5011302;28;19970;-74
2022/06/28 06:43:03;;;;;;;;;;;;;;;-144.99;100.00;52297.25;5008924;28;19925;-74
2022/06/28 06:45:30;;;;;;;;;;;;;;;-144.99;97.24;52268.72;5002381;28;19960;-74
2022/06/28 06:47:58;;;;;;;;;;;;;;;-144.99;96.10;52295.22;5013380;28;19971;-74
2022/06/28 06:50:24;;;;;;;;;;;;;;;-144.99;94.52;52291.16;4986283;28;20332;-73
2022/06/28 06:52:51;;;;;;;;;;;;;;;-144.99;94.39;52293.19;4961811;28;19929;-73
2022/06/28 06:55:17;;;;;;;;;;;;;;;-144.99;94.07;52313.56;4977427;28;19926;-75
2022/06/28 06:57:45;;;;;;;;;;;;;;;-144.99;92.42;52268.72;4988263;28;19965;-74
2022/06/28 07:00:12;;;;;;;;;;;;;;;-144.99;92.25;52285.03;4956231;28;20221;-74
2022/06/28 07:02:42;;;;;;;;;;;;;;;-144.99;89.08;52283.00;4956571;28;20371;-74
2022/06/28 07:05:11;;;;;;;;;;;;;;;-144.99;87.83;52276.88;4973305;28;19922;-74
2022/06/28 07:07:37;;;;;;;;;;;;;;;-144.99;86.54;52260.56;4955538;28;20412;-74
2022/06/28 07:10:04;;;;;;;;;;;;;;;-144.99;84.93;52293.19;4951174;28;20005;-74
2022/06/28 07:12:31;;;;;;;;;;;;;;;-144.99;84.84;52297.25;4986231;28;19927;-75
2022/06/28 07:14:57;;;;;;;;;;;;;;;-144.99;84.42;52256.50;5007362;28;19930;-74
2022/06/28 07:17:24;;;;;;;;;;;;;;;-144.99;81.74;52260.56;4978629;28;19990;-74
2022/06/28 07:19:50;;;;;;;;;;;;;;;-144.99;83.98;52293.19;4964093;28;19976;-74
2022/06/28 07:22:18;;;;;;;;;;;;;;;-144.99;85.59;52268.72;5005303;28;20778;-73
2022/06/28 07:24:44;;;;;;;;;;;;;;;-144.99;84.74;52301.34;4979994;28;20157;-74
2022/06/28 07:27:11;;;;;;;;;;;;;;;-144.99;84.34;52260.56;5008526;28;19998;-74
2022/06/28 07:29:37;;;;;;;;;;;;;;;-144.99;83.01;52329.88;4984312;28;20465;-74
2022/06/28 07:32:07;;;;;;;;;;;;;;;-144.99;83.43;52342.09;4983321;28;19971;-74
2022/06/28 07:34:34;;;;;;;;;;;;;;;-144.99;84.05;52262.63;4950385;28;19926;-74
2022/06/28 07:37:00;;;;;;;;;;;;;;;-144.99;83.91;52293.19;5004212;28;20108;-74
2022/06/28 07:39:29;;;;;;;;;;;;;;;-144.99;80.03;52276.88;4943835;28;20152;-74
2022/06/28 07:41:55;;;;;;;;;;;;;;;-144.99;76.98;52268.72;4946680;28;20020;-74
2022/06/28 07:44:24;;;;;;;;;;;;;;;-144.99;76.63;52280.97;4945659;28;19965;-74
2022/06/28 07:46:51;;;;;;;;;;;;;;;-144.99;75.99;52250.38;4946430;28;19980;-74
2022/06/28 07:49:17;;;;;;;;;;;;;;;-144.99;74.82;52280.97;4944360;28;20050;-74
2022/06/28 07:54:29;;;;;;;;;;;;;;;-144.99;66.65;52293.19;4945483;29;19951;-74
2022/06/28 07:56:56;;;;;;;;;;;;;;;-144.99;67.12;52293.19;4947076;28;20306;-74
2022/06/28 07:59:22;;;;;;;;;;;;;;;-144.99;66.52;52250.38;4947241;28;20017;-74
2022/06/28 08:01:50;;;;;;;;;;;;;;;-144.99;65.86;52276.88;4935253;28;20113;-74
2022/06/28 08:04:16;;;;;;;;;;;;;;;-144.99;65.88;52260.56;4929160;29;19922;-74
2022/06/28 08:06:43;;;;;;;;;;;;;;;-144.99;66.60;52280.97;4946147;28;20039;-73
2022/06/28 08:09:10;;;;;;;;;;;;;;;-144.99;66.51;52289.13;4950402;28;20355;-73
2022/06/28 08:11:39;;;;;;;;;;;;;;;-144.99;65.98;52238.16;5010030;28;20474;-74
2022/06/28 08:14:05;;;;;;;;;;;;;;;-144.99;65.19;52252.44;4937321;28;19922;-73
2022/06/28 08:16:32;;;;;;;;;;;;;;;-144.99;62.83;52256.50;4947596;28;19926;-73
2022/06/28 08:18:58;;;;;;;;;;;;;;;-144.99;56.45;52293.19;4947196;28;20410;-73
2022/06/28 08:21:26;;;;;;;;;;;;;;;-144.99;56.54;52264.66;4946591;28;19976;-74
2022/06/28 08:23:53;;;;;;;;;;;;;;;-144.99;55.62;52236.13;4946631;28;20413;-73
2022/06/28 08:26:19;;;;;;;;;;;;;;;-144.99;54.72;52244.28;4993171;28;19934;-73
2022/06/28 08:28:47;;;;;;;;;;;;;;;-144.99;52.14;52260.56;5004072;28;19927;-73
2022/06/28 08:31:14;;;;;;;;;;;;;;;-144.99;51.18;52256.50;4980077;28;19969;-72
2022/06/28 08:33:40;;;;;;;;;;;;;;;-144.99;49.91;52256.50;5019885;28;20294;-72
2022/06/28 08:36:07;;;;;;;;;;;;;;;-144.99;50.00;52248.34;4974345;28;19992;-72
2022/06/28 08:38:33;;;;;;;;;;;;;;;-144.99;51.50;52244.28;5005922;28;19948;-73
2022/06/28 08:41:01;;;;;;;;;;;;;;;-144.99;50.87;52285.03;4988025;28;19976;-72
2022/06/28 08:43:30;;;;;;;;;;;;;;;-144.99;50.57;52252.44;4990438;28;19921;-73
2022/06/28 08:45:58;;;;;;;;;;;;;;;-144.99;49.06;52264.66;4984254;28;20031;-73
2022/06/28 08:48:29;;;;;;;;;;;;;;;-144.99;49.27;52276.88;5012128;28;19984;-72
2022/06/28 08:50:55;;;;;;;;;;;;;;;-144.99;50.09;52236.13;4990743;28;20334;-73
2022/06/28 08:53:23;;;;;;;;;;;;;;;-144.99;49.83;52272.81;4947125;28;19926;-73
2022/06/28 08:55:50;;;;;;;;;;;;;;;-144.99;49.62;52264.66;4973731;28;19995;-73
2022/06/28 08:58:17;;;;;;;;;;;;;;;-144.99;49.49;52256.50;4965047;28;19966;-73
2022/06/28 09:00:43;;;;;;;;;;;;;;;-144.99;49.56;52250.38;4949811;28;20009;-73
2022/06/28 09:03:11;;;;;;;;;;;;;;;-144.99;50.36;52248.34;4985150;28;20377;-73
2022/06/28 09:05:38;;;;;;;;;;;;;;;-144.99;49.37;52252.44;4980944;28;20004;-73
2022/06/28 09:08:05;;;;;;;;;;;;;;;-144.99;49.58;52252.44;5000132;28;19926;-71
2022/06/28 09:10:31;;;;;;;;;;;;;;;-144.99;47.17;52264.66;4976312;28;20319;-71
2022/06/28 09:13:08;;;;;;;;;;;;;;;-144.99;47.91;52260.56;4982651;28;19961;-70
2022/06/28 09:15:54;;;;;;;;;;;;;;;-144.99;47.86;52238.16;4988730;28;19953;-71
2022/06/28 09:18:23;;;;;;;;;;;;;;;-144.99;48.21;52252.44;4970134;28;20353;-71
2022/06/28 09:20:51;;;;;;;;;;;;;;;-144.99;48.80;52230.00;4982335;28;19988;-71
2022/06/28 09:23:26;;;;;;;;;;;;;;;-144.99;48.65;52254.47;5003645;28;19926;-70
2022/06/28 09:25:54;;;;;;;18.40;17.60;;;;;;;-144.99;49.08;52305.41;4984661;28;24910;-71
2022/06/28 09:28:25;;;;;;;;;;;;;;;-144.99;50.11;52260.56;5004146;28;20769;-71
2022/06/28 09:30:51;;;;;;;;;;;;;;;-144.99;50.04;52203.50;4982169;28;19922;-71
2022/06/28 09:33:28;;;;;;;;;;;;;;;-144.99;48.08;52276.88;4978821;28;19923;-70
2022/06/28 09:35:56;;;;;;;;;;;;;;;-144.99;46.10;52276.88;4977179;28;19988;-72
2022/06/28 09:38:33;;;;;;;;;;;;;;;-144.99;45.55;52268.72;5009227;28;19920;-72
2022/06/28 09:41:00;;;;;;;;;;;;;;;-144.99;47.05;52236.13;4988567;28;19961;-73
2022/06/28 09:43:30;;;;;;;;;;;;;;;-144.99;46.88;52223.88;4964387;28;19921;-72
2022/06/28 09:45:58;;;;;;;;;;;;;;;-144.99;47.14;52248.34;5000584;28;20005;-73
2022/06/28 09:48:24;;;;;;;;;;;;;;;-144.99;47.01;52260.56;5015013;28;20015;-73
2022/06/28 09:50:58;;;;;;;;;;;;;;;-144.99;47.60;52232.03;4992913;28;20397;-72
2022/06/28 09:53:26;;;;;;;;;;;;;;;-144.99;47.94;52240.19;5018333;28;19974;-72
2022/06/28 09:55:53;;;;;;;;;;;;;;;-144.99;47.97;52260.56;4967583;28;19926;-72
2022/06/28 09:58:20;;;;;;;;;;;;;;;-144.99;45.33;52187.19;4998616;28;20372;-73
2022/06/28 10:00:47;;;;;;;;;;;;;;;-144.99;45.58;52248.34;4997044;28;20370;-72
2022/06/28 10:03:14;;;;;;;;;;;;;;;-144.99;45.55;52201.47;5007857;28;19930;-73
2022/06/28 10:05:40;;;;;;;;;;;;;;;-144.99;45.39;52203.50;4985290;28;19935;-72
2022/06/28 10:08:08;;;;;;;;;;;;;;;-144.99;44.99;52223.88;4986981;28;19961;-74
2022/06/28 10:10:37;;;;;;;;;;;;;;;-144.99;45.06;52232.03;4950898;28;20009;-72
2022/06/28 10:15:51;;;;;;;;;;;;;;;-144.99;45.17;52232.03;5019584;28;20302;-73
2022/06/28 10:18:20;;;;;;;;;;;;;;;-144.99;44.31;52191.28;4987154;28;20375;-72
2022/06/28 10:20:46;;;;;;;;;;;;;;;-144.99;43.81;52174.97;4974056;28;20425;-73
2022/06/28 10:23:25;;;;;;;;;;;;;;;-144.99;44.59;52195.34;5017547;28;19930;-73
2022/06/28 10:26:02;;;;;;;;;;;;;;;-144.99;43.80;52199.44;4979851;28;20171;-73
2022/06/28 10:28:29;;;;;;;;;;;;;;;-144.99;43.39;52219.81;4964849;28;19978;-73
2022/06/28 10:31:10;;;;;;;;;;;;;;;-144.99;43.51;52172.94;4999523;28;20003;-74
2022/06/28 10:33:41;;;;;;;;;;;;;;;-144.99;44.10;52211.66;4947677;28;19969;-74
2022/06/28 10:36:14;;;;;;;;;;;;;;;-144.99;44.53;52211.66;4980617;28;19970;-74
2022/06/28 10:39:02;;;;;;;;;;;;;;;-144.99;43.39;52219.81;5016542;28;19928;-74
2022/06/28 10:41:37;;;;;;;;;;;;;;;-144.99;42.46;52140.31;4985937;28;19925;-75
2022/06/28 10:44:08;;;;;;;;;;;;;;;-144.99;43.60;52154.59;4977878;28;19930;-75
2022/06/28 10:46:34;;;;;;;;;;;;;;;-144.99;42.84;52130.13;4981429;28;19929;-75
2022/06/28 10:49:02;;;;;;;;;;;;;;;-144.99;41.56;52138.28;5003244;28;20363;-76
2022/06/28 10:51:29;;;;;;;;;;;;;;;-144.99;40.91;52174.97;4972001;28;19924;-74
2022/06/28 10:54:01;;;;;;;;;;;;;;;-144.99;41.99;52130.13;5014702;28;19972;-73
2022/06/28 10:56:28;;;;;;;;;;;;;;;-144.99;42.47;52185.16;4986112;28;19922;-75
2022/06/28 10:58:56;;;;;;;;;;;;;;;-144.99;41.43;52154.59;4968024;28;19929;-76
2022/06/28 11:01:38;;;;;;;;;;;;;;;-144.99;41.02;52181.09;4994994;28;19929;-76
2022/06/28 11:04:11;;;;;;;;;;;;;;;-144.99;40.83;52158.66;4987099;28;19920;-74
2022/06/28 11:06:40;;;;;;;;;;;;;;;-144.99;40.21;52154.59;4951645;28;20387;-76
2022/06/28 11:09:09;;;;;;;;;;;;;;;-144.99;40.46;52146.44;4992082;28;19964;-75
2022/06/28 11:11:36;;;;;;;;;;;;;;;-144.99;41.01;52140.31;4987367;28;19930;-76
2022/06/28 11:14:21;;;;;;;;;;;;;;;-144.99;40.92;52166.81;5016218;28;19963;-74
2022/06/28 11:19:20;;;;;;;;;;;;;;;-144.99;40.67;52126.06;5008902;28;20278;-64
2022/06/28 11:21:47;;;;;;;;;;;;;;;-144.99;40.85;52134.22;4641570;28;10000356;-64
2022/06/28 11:24:15;;;;;;;;;;;;;;;-144.99;39.70;52154.59;4966283;28;20508;-64
2022/06/28 11:29:26;;;;;;;;;;;;;;;-144.99;38.17;52109.75;4972085;28;20055;-65
2022/06/28 11:31:52;;;;;;;;;;;;;;;-144.99;38.13;52093.44;4969253;28;19926;-63
2022/06/28 11:34:25;;;;;;;;;;;;;;;-144.99;38.66;52160.72;4967539;28;19979;-63
2022/06/28 11:36:54;;;;;;;;;;;;;;;-144.99;39.37;52146.44;4967093;28;20033;-64
2022/06/28 11:39:21;;;;;;;;;;;;;;;-144.99;39.65;52170.91;4966501;28;20016;-63
2022/06/28 11:41:48;;;;;;;;;;;;;;;-144.99;40.37;52191.28;4966642;28;20041;-63
2022/06/28 11:44:15;;;;;;;;;;;;;;;-144.99;40.49;52211.66;4965897;28;19926;-62
2022/06/28 11:46:42;;;;;;;;;;;;;;;-144.99;40.32;52126.06;4965979;28;19933;-63
2022/06/28 11:49:08;;;;;;;;;;;;;;;-144.99;40.92;52179.06;4966760;28;19976;-63
2022/06/28 11:51:36;;;;;;;;;;;;;;;-144.99;41.21;52199.44;4966506;28;19956;-63
2022/06/28 11:54:06;;;;;;;;;;;;;;;-144.99;40.74;52199.44;4966739;28;19933;-62
2022/06/28 11:56:42;;;;;;;;;;;;;;;-144.99;40.47;52134.22;4965515;28;20392;-62
2022/06/28 11:59:08;;;;;;;;;;;;;;;-144.99;40.68;52107.72;4963694;28;20054;-63
2022/06/28 12:01:38;;;;;;;;;;;;;;;-144.99;39.55;52130.13;4965666;28;20014;-62
2022/06/28 12:04:06;;;;;;;;;;;;;;;-144.99;39.28;52162.75;4965824;28;19926;-62
2022/06/28 12:06:33;;;;;;;;;;;;;;;-144.99;38.29;52097.53;4965722;28;19926;-63
2022/06/28 12:09:01;;;;;;;;;;;;;;;-144.99;38.20;52099.56;4965095;28;20021;-64
2022/06/28 12:11:30;;;;;;;;;;;;;;;-144.99;38.09;52081.22;4964934;28;19930;-63
2022/06/28 12:13:57;;;;;;;;;;;;;;;-144.99;38.59;52132.19;4966063;28;19975;-63
2022/06/28 12:16:24;;;;;;;;;;;;;;;-144.99;38.29;52174.97;4965520;28;20568;-65
2022/06/28 12:18:53;;;;;;;;;;;;;;;-144.99;38.38;52183.13;4969872;28;19965;-63
2022/06/28 12:21:20;;;;;;;;;;;;;;;-144.99;38.68;52158.66;4966029;28;19987;-63
2022/06/28 12:23:47;;;;;;;;;;;;;;;-144.99;38.80;52146.44;4965857;28;19991;-63
2022/06/28 12:26:15;;;;;;;;;;;;;;;-144.99;39.05;52148.47;4985195;28;19924;-62
2022/06/28 12:28:42;;;;;;;;;;;;;;;-144.99;39.85;52113.84;4965339;28;20283;-63
2022/06/28 12:31:08;;;;;;;;;;;;;;;-144.99;38.57;52121.97;4975687;28;20035;-63
2022/06/28 12:33:35;;;;;;;;;;;;;;;-144.99;39.25;52119.94;4964487;28;19970;-62
2022/06/28 12:36:01;;;;;;;;;;;;;;;-144.99;38.23;52101.59;4964874;28;20025;-63
2022/06/28 12:38:28;;;;;;;;;;;;;;;-144.99;39.01;52121.97;4964459;28;19922;-63
2022/06/28 12:40:54;;;;;;;;;;;;;;;-144.99;38.82;52105.69;4965121;28;19940;-62
2022/06/28 12:43:22;;;;;;;;;;;;;;;-144.99;39.06;52146.44;4964996;28;19936;-61